| time (UTC) | temp C | wind direction | speed KPH | gust KPH | rain 1hr cm | rain 24hr cm | rain mn cm | humidity % | barometer mb |
| 20260503021707 | 12 | 156 | 4.8 | 11.3 | 0.00 | 0.00 | 0.00 | 97 | 1011.5 |
| 20260503020708 | 12 | 174 | 6.4 | 9.7 | 0.00 | 0.00 | 0.00 | 98 | 1011.4 |
| 20260503015707 | 12 | 158 | 6.4 | 14.5 | 0.00 | 0.00 | 0.00 | 98 | 1011.2 |
| 20260503014708 | 13 | 148 | 6.4 | 11.3 | 0.00 | 0.00 | 0.00 | 98 | 1011.5 |
| 20260503014147 | 13 | 147 | 8.0 | 11.3 | 0.00 | 0.00 | 0.00 | 98 | 1011.4 |
| 20260503012709 | 13 | 151 | 6.4 | 11.3 | 0.00 | 0.00 | 0.00 | 98 | 1011.4 |
| 20260503012154 | 13 | 146 | 6.4 | 11.3 | 0.00 | 0.00 | 0.00 | 98 | 1011.7 |
| 20260503010708 | 13 | 135 | 6.4 | 14.5 | 0.00 | 0.00 | 0.00 | 98 | 1011.6 |
| 20260503005707 | 12 | 136 | 8.0 | 16.1 | 0.00 | 0.00 | 0.00 | 98 | 1011.7 |
| 20260503005144 | 12 | 117 | 8.0 | 14.5 | 0.00 | 0.00 | 0.00 | 99 | 1011.6 |
| 20260503003707 | 12 | 148 | 6.4 | 14.5 | 0.00 | 0.00 | 0.00 | 99 | 1011.9 |
| 20260503003150 | 12 | 145 | 8.0 | 14.5 | 0.00 | 0.00 | 0.00 | 99 | 1011.7 |
| 20260503001707 | 12 | 119 | 8.0 | 16.1 | 0.00 | 0.00 | 0.00 | 99 | 1011.9 |
| 20260503000707 | 12 | 165 | 8.0 | 14.5 | 0.05 | 0.00 | 0.00 | 99 | 1012.0 |
| 20260502234707 | 12 | 112 | 4.8 | 12.9 | 0.33 | 0.00 | 0.00 | 99 | 1012.0 |
| 20260502233707 | 12 | 131 | 4.8 | 20.9 | 0.43 | 0.00 | 0.00 | 98 | 1012.0 |
| 20260502232707 | 13 | 100 | 9.7 | 27.4 | 0.51 | 0.00 | 0.00 | 99 | 1012.0 |
| 20260502231707 | 13 | 97 | 9.7 | 20.9 | 0.56 | 0.00 | 0.00 | 99 | 1012.0 |
| 20260502225707 | 13 | 110 | 16.1 | 33.8 | 0.48 | 0.00 | 0.00 | 97 | 1012.4 |
| 20260502225146 | 12 | 108 | 14.5 | 30.6 | 0.36 | 0.00 | 0.00 | 96 | 1013.0 |
| 20260502224145 | 12 | 113 | 30.6 | 30.6 | 0.23 | 0.00 | 0.00 | 95 | 1013.4 |
| 20260502222706 | 13 | 118 | 16.1 | 19.3 | 0.15 | 0.00 | 0.00 | 93 | 1014.1 |
| 20260502221705 | 13 | 118 | 11.3 | 17.7 | 0.10 | 0.00 | 0.00 | 90 | 1014.4 |
| 20260502220706 | 13 | 159 | 11.3 | 24.1 | 0.03 | 0.00 | 0.00 | 89 | 1014.6 |
| 20260502215708 | 13 | 202 | 17.7 | 30.6 | 0.00 | 0.00 | 0.00 | 97 | 1015.3 |
| 20260502214707 | 13 | 111 | 11.3 | 20.9 | 0.00 | 0.00 | 0.00 | 96 | 1013.7 |
| 20260502213706 | 13 | 69 | 8.0 | 9.7 | 0.00 | 0.00 | 0.00 | 96 | 1013.4 |
| 20260502212707 | 12 | 126 | 0.0 | 4.8 | 0.00 | 0.00 | 0.00 | 96 | 1013.5 |
| 20260502211708 | 12 | 54 | 1.6 | 4.8 | 0.00 | 0.00 | 0.00 | 95 | 1013.3 |
| 20260502210706 | 12 | 34 | 1.6 | 3.2 | 0.00 | 0.00 | 0.00 | 94 | 1013.3 |
| 20260502205707 | 12 | 45 | 0.0 | 6.4 | 0.00 | 0.00 | 0.00 | 93 | 1013.5 |
| 20260502204706 | 12 | 52 | 1.6 | 8.0 | 0.00 | 0.00 | 0.00 | 92 | 1013.6 |
| 20260502203708 | 12 | 62 | 1.6 | 4.8 | 0.00 | 0.00 | 0.00 | 91 | 1014.0 |
| 20260502202706 | 12 | 104 | 1.6 | 6.4 | 0.00 | 0.00 | 0.00 | 90 | 1014.1 |
| 20260502201706 | 12 | 46 | 4.8 | 6.4 | 0.00 | 0.00 | 0.00 | 88 | 1014.0 |
| 20260502200706 | 12 | 30 | 3.2 | 4.8 | 0.00 | 0.00 | 0.00 | 86 | 1014.3 |
| 20260502195705 | 12 | 77 | 1.6 | 4.8 | 0.00 | 0.00 | 0.00 | 84 | 1014.2 |
| 20260502194705 | 12 | 103 | 3.2 | 6.4 | 0.00 | 0.00 | 0.00 | 83 | 1014.4 |
| 20260502193706 | 12 | 97 | 1.6 | 4.8 | 0.00 | 0.00 | 0.00 | 83 | 1014.3 |
| 20260502192705 | 12 | 18 | 3.2 | 6.4 | 0.00 | 0.00 | 0.00 | 82 | 1014.3 |
| 20260502191705 | 12 | 21 | 4.8 | 6.4 | 0.00 | 0.00 | 0.00 | 83 | 1014.2 |
| 20260502190707 | 13 | 340 | 6.4 | 6.4 | 0.00 | 0.00 | 0.00 | 82 | 1014.3 |
| 20260502185705 | 13 | 24 | 3.2 | 4.8 | 0.00 | 0.00 | 0.00 | 83 | 1014.5 |
| 20260502184705 | 13 | 50 | 1.6 | 6.4 | 0.00 | 0.00 | 0.00 | 83 | 1014.5 |
| 20260502184154 | 14 | 358 | 3.2 | 6.4 | 0.00 | 0.00 | 0.00 | 81 | 1014.1 |
| 20260502182637 | 15 | 9 | 0.0 | 4.8 | 0.00 | 0.00 | 0.00 | 80 | 1014.3 |
| 20260502181638 | 15 | 356 | 4.8 | 8.0 | 0.00 | 0.00 | 0.00 | 78 | 1014.2 |
| 20260502180638 | 15 | 349 | 8.0 | 9.7 | 0.00 | 0.00 | 0.00 | 76 | 1014.3 |
| 20260502163638 | 19 | 345 | 3.2 | 9.7 | 0.00 | 0.00 | 0.00 | 55 | 1015.3 |
| 20260502163123 | 19 | 287 | 1.6 | 8.0 | 0.00 | 0.00 | 0.00 | 56 | 1015.3 |
| 20260502161638 | 20 | 284 | 3.2 | 9.7 | 0.00 | 0.00 | 0.00 | 57 | 1015.4 |
| 20260502160637 | 20 | 266 | 4.8 | 8.0 | 0.00 | 0.00 | 0.00 | 52 | 1015.4 |
| 20260502151638 | 21 | 329 | 3.2 | 11.3 | 0.00 | 0.00 | 0.00 | 55 | 1015.8 |
| 20260502150637 | 21 | 252 | 3.2 | 9.7 | 0.00 | 0.00 | 0.00 | 58 | 1015.9 |
| 20260502150114 | 21 | 251 | 6.4 | 11.3 | 0.00 | 0.00 | 0.00 | 55 | 1016.0 |
| 20260502130638 | 20 | 222 | 3.2 | 14.5 | 0.00 | 0.00 | 0.00 | 75 | 1017.0 |
| 20260502122638 | 19 | 209 | 16.1 | 24.1 | 0.00 | 0.00 | 0.00 | 77 | 1017.0 |
| 20260502115637 | 19 | 228 | 9.7 | 20.9 | 0.00 | 0.00 | 0.00 | 80 | 1017.3 |
| 20260502114638 | 18 | 212 | 9.7 | 24.1 | 0.00 | 0.00 | 0.00 | 82 | 1017.5 |
| 20260502114113 | 18 | 252 | 12.9 | 22.5 | 0.00 | 0.00 | 0.00 | 80 | 1017.6 |
| 20260502112637 | 18 | 222 | 11.3 | 17.7 | 0.00 | 0.00 | 0.00 | 84 | 1017.5 |
| 20260502111650 | 18 | 229 | 9.7 | 17.7 | 0.00 | 0.00 | 0.00 | 82 | 1017.7 |
| 20260502105638 | 19 | 336 | 1.6 | 20.9 | 0.00 | 0.00 | 0.00 | 83 | 1017.5 |
| 20260502104638 | 18 | 208 | 17.7 | 22.5 | 0.00 | 0.00 | 0.00 | 80 | 1017.9 |
| 20260502103639 | 18 | 213 | 14.5 | 24.1 | 0.00 | 0.00 | 0.00 | 79 | 1017.7 |
| 20260502103118 | 18 | 221 | 19.3 | 25.7 | 0.00 | 0.00 | 0.00 | 79 | 1017.8 |
| 20260502102114 | 18 | 194 | 11.3 | 24.1 | 0.00 | 0.00 | 0.00 | 78 | 1017.8 |
| 20260502100638 | 18 | 198 | 14.5 | 24.1 | 0.00 | 0.00 | 0.00 | 78 | 1017.9 |
| 20260502100114 | 18 | 205 | 19.3 | 24.1 | 0.00 | 0.00 | 0.00 | 80 | 1017.9 |
| 20260502070638 | 13 | 191 | 9.7 | 9.7 | 0.00 | 0.00 | 0.00 | 78 | 1018.2 |
| 20260502070116 | 13 | 178 | 4.8 | 8.0 | 0.00 | 0.00 | 0.00 | 80 | 1018.1 |
| 20260502064637 | 13 | 143 | 4.8 | 6.4 | 0.00 | 0.00 | 0.00 | 78 | 1018.0 |
| 20260502063638 | 12 | 130 | 3.2 | 6.4 | 0.00 | 0.00 | 0.00 | 79 | 1018.1 |
| 20260502062637 | 12 | 137 | 6.4 | 6.4 | 0.00 | 0.00 | 0.00 | 79 | 1018.0 |
| 20260502062124 | 12 | 137 | 3.2 | 8.0 | 0.00 | 0.00 | 0.00 | 78 | 1018.1 |
| 20260502060637 | 12 | 168 | 4.8 | 9.7 | 0.00 | 0.00 | 0.00 | 77 | 1018.1 |
| 20260502055637 | 12 | 173 | 8.0 | 9.7 | 0.00 | 0.00 | 0.00 | 76 | 1018.4 |
| 20260502054637 | 12 | 193 | 6.4 | 11.3 | 0.00 | 0.00 | 0.00 | 78 | 1018.2 |
| 20260502053637 | 12 | 130 | 4.8 | 6.4 | 0.00 | 0.00 | 0.00 | 77 | 1017.7 |
| 20260502052638 | 12 | 128 | 3.2 | 6.4 | 0.00 | 0.00 | 0.00 | 73 | 1017.7 |
| 20260502051637 | 11 | 135 | 4.8 | 8.0 | 0.00 | 0.00 | 0.00 | 74 | 1017.8 |
| 20260502050637 | 11 | 131 | 4.8 | 6.4 | 0.00 | 0.00 | 0.00 | 74 | 1017.9 |
| 20260502044637 | 10 | 133 | 3.2 | 4.8 | 0.00 | 0.00 | 0.00 | 75 | 1018.0 |
| 20260502044120 | 10 | 138 | 4.8 | 6.4 | 0.00 | 0.00 | 0.00 | 76 | 1018.0 |
| 20260502042638 | 10 | 142 | 4.8 | 6.4 | 0.00 | 0.00 | 0.00 | 76 | 1017.8 |
| 20260502041637 | 10 | 129 | 4.8 | 6.4 | 0.00 | 0.00 | 0.00 | 77 | 1017.8 |
| 20260502040637 | 10 | 118 | 3.2 | 6.4 | 0.00 | 0.00 | 0.00 | 76 | 1017.9 |
| 20260502035638 | 10 | 107 | 3.2 | 6.4 | 0.00 | 0.00 | 0.00 | 77 | 1017.9 |
| 20260502034637 | 10 | 146 | 4.8 | 8.0 | 0.00 | 0.00 | 0.00 | 75 | 1018.0 |
| 20260502033637 | 10 | 107 | 6.4 | 9.7 | 0.00 | 0.00 | 0.00 | 74 | 1017.9 |
| 20260502032638 | 10 | 119 | 8.0 | 9.7 | 0.00 | 0.00 | 0.00 | 75 | 1018.1 |
| 20260502031638 | 10 | 127 | 4.8 | 8.0 | 0.00 | 0.00 | 0.00 | 76 | 1018.1 |
| 20260502030638 | 10 | 132 | 4.8 | 6.4 | 0.00 | 0.00 | 0.00 | 75 | 1018.3 |
| 20260502030130 | 10 | 137 | 4.8 | 9.7 | 0.00 | 0.00 | 0.00 | 75 | 1018.3 |
| 20260502024639 | 10 | 102 | 4.8 | 9.7 | 0.00 | 0.00 | 0.00 | 75 | 1018.4 |
| 20260502023638 | 11 | 139 | 4.8 | 6.4 | 0.00 | 0.00 | 0.00 | 73 | 1018.5 |
| 20260502022637 | 11 | 132 | 3.2 | 8.0 | 0.00 | 0.00 | 0.00 | 72 | 1018.3 |